sensor_id;sensor_type;location;lat;lon;timestamp;P1;P2;P0
44933;PMS3003;30667;43.614;1.442;2023-06-10T00:01:26;3.00;2.50;0.00
44933;PMS3003;30667;43.614;1.442;2023-06-10T00:03:52;3.60;2.00;0.00
44933;PMS3003;30667;43.614;1.442;2023-06-10T00:06:18;2.50;2.00;0.00
44933;PMS3003;30667;43.614;1.442;2023-06-10T00:08:43;3.00;2.00;0.75
44933;PMS3003;30667;43.614;1.442;2023-06-10T00:11:09;5.00;5.00;2.00
44933;PMS3003;30667;43.614;1.442;2023-06-10T00:13:35;3.20;3.00;1.00
44933;PMS3003;30667;43.614;1.442;2023-06-10T00:16:01;2.25;2.00;1.00
44933;PMS3003;30667;43.614;1.442;2023-06-10T00:18:26;3.00;3.00;0.75
44933;PMS3003;30667;43.614;1.442;2023-06-10T00:20:52;2.25;2.00;0.00
44933;PMS3003;30667;43.614;1.442;2023-06-10T00:23:20;3.40;3.00;0.00
44933;PMS3003;30667;43.614;1.442;2023-06-10T00:25:46;2.40;2.00;0.00
44933;PMS3003;30667;43.614;1.442;2023-06-10T00:28:11;2.25;2.25;0.00
44933;PMS3003;30667;43.614;1.442;2023-06-10T00:30:38;2.40;2.40;0.00
44933;PMS3003;30667;43.614;1.442;2023-06-10T00:33:04;3.00;3.00;0.00
44933;PMS3003;30667;43.614;1.442;2023-06-10T00:35:29;2.25;1.50;0.00
44933;PMS3003;30667;43.614;1.442;2023-06-10T00:37:55;3.00;2.00;0.00
44933;PMS3003;30667;43.614;1.442;2023-06-10T00:40:20;1.25;1.25;0.00
44933;PMS3003;30667;43.614;1.442;2023-06-10T00:42:45;2.00;2.00;0.00
44933;PMS3003;30667;43.614;1.442;2023-06-10T00:45:11;2.25;2.00;0.00
44933;PMS3003;30667;43.614;1.442;2023-06-10T00:47:36;3.00;2.75;1.00
44933;PMS3003;30667;43.614;1.442;2023-06-10T00:50:02;2.00;2.00;0.00
44933;PMS3003;30667;43.614;1.442;2023-06-10T00:52:29;1.20;1.20;0.00
44933;PMS3003;30667;43.614;1.442;2023-06-10T00:54:58;2.00;2.00;0.00
44933;PMS3003;30667;43.614;1.442;2023-06-10T00:57:24;3.00;2.00;0.00
44933;PMS3003;30667;43.614;1.442;2023-06-10T00:59:50;2.00;2.00;0.00
44933;PMS3003;30667;43.614;1.442;2023-06-10T01:02:16;2.75;2.00;0.00
44933;PMS3003;30667;43.614;1.442;2023-06-10T01:04:41;2.00;2.00;0.00
44933;PMS3003;30667;43.614;1.442;2023-06-10T01:07:14;2.00;2.00;0.00
44933;PMS3003;30667;43.614;1.442;2023-06-10T01:10:05;1.60;1.60;0.00
44933;PMS3003;30667;43.614;1.442;2023-06-10T01:15:14;2.40;1.00;0.00
44933;PMS3003;30667;43.614;1.442;2023-06-10T01:20:22;2.20;2.00;0.00
44933;PMS3003;30667;43.614;1.442;2023-06-10T01:22:49;2.80;2.00;0.00
44933;PMS3003;30667;43.614;1.442;2023-06-10T01:25:15;2.60;2.00;0.00
44933;PMS3003;30667;43.614;1.442;2023-06-10T01:27:42;3.00;2.20;0.20
44933;PMS3003;30667;43.614;1.442;2023-06-10T01:30:11;2.00;1.00;0.00
44933;PMS3003;30667;43.614;1.442;2023-06-10T01:32:43;1.40;1.40;0.00
44933;PMS3003;30667;43.614;1.442;2023-06-10T01:35:11;3.40;3.00;0.00
44933;PMS3003;30667;43.614;1.442;2023-06-10T01:37:38;2.20;1.80;0.00
44933;PMS3003;30667;43.614;1.442;2023-06-10T01:40:07;3.00;2.40;0.00
44933;PMS3003;30667;43.614;1.442;2023-06-10T01:42:34;1.60;1.60;0.00
44933;PMS3003;30667;43.614;1.442;2023-06-10T01:45:00;2.00;2.00;0.00
44933;PMS3003;30667;43.614;1.442;2023-06-10T01:47:25;2.00;1.50;0.00
44933;PMS3003;30667;43.614;1.442;2023-06-10T01:49:51;3.00;1.00;0.00
44933;PMS3003;30667;43.614;1.442;2023-06-10T01:52:16;3.00;1.00;0.00
44933;PMS3003;30667;43.614;1.442;2023-06-10T01:54:42;4.00;2.80;0.00
44933;PMS3003;30667;43.614;1.442;2023-06-10T01:57:07;2.00;2.00;0.00
44933;PMS3003;30667;43.614;1.442;2023-06-10T01:59:33;3.25;2.00;1.00
44933;PMS3003;30667;43.614;1.442;2023-06-10T02:01:58;2.75;2.75;0.75
44933;PMS3003;30667;43.614;1.442;2023-06-10T02:04:23;2.50;2.50;1.00
44933;PMS3003;30667;43.614;1.442;2023-06-10T02:06:49;3.00;2.75;0.00
44933;PMS3003;30667;43.614;1.442;2023-06-10T02:09:15;3.00;3.00;0.00
44933;PMS3003;30667;43.614;1.442;2023-06-10T02:11:40;3.00;3.00;0.00
44933;PMS3003;30667;43.614;1.442;2023-06-10T02:14:06;2.00;1.75;0.00
44933;PMS3003;30667;43.614;1.442;2023-06-10T02:16:31;2.50;2.50;0.50
44933;PMS3003;30667;43.614;1.442;2023-06-10T02:18:57;3.00;2.50;0.00
44933;PMS3003;30667;43.614;1.442;2023-06-10T02:21:22;2.00;2.00;1.00
44933;PMS3003;30667;43.614;1.442;2023-06-10T02:23:48;3.00;3.00;0.25
44933;PMS3003;30667;43.614;1.442;2023-06-10T02:26:13;2.00;2.00;0.50
44933;PMS3003;30667;43.614;1.442;2023-06-10T02:28:42;3.00;3.00;1.00
44933;PMS3003;30667;43.614;1.442;2023-06-10T02:31:07;2.00;2.00;0.00
44933;PMS3003;30667;43.614;1.442;2023-06-10T02:33:33;3.75;3.00;1.00
44933;PMS3003;30667;43.614;1.442;2023-06-10T02:35:58;2.00;2.00;1.00
44933;PMS3003;30667;43.614;1.442;2023-06-10T02:38:24;2.50;2.25;0.00
44933;PMS3003;30667;43.614;1.442;2023-06-10T02:40:49;5.00;3.25;1.00
44933;PMS3003;30667;43.614;1.442;2023-06-10T02:43:15;1.00;1.00;0.00
44933;PMS3003;30667;43.614;1.442;2023-06-10T02:45:40;3.00;3.00;1.00
44933;PMS3003;30667;43.614;1.442;2023-06-10T02:48:06;3.00;3.00;1.00
44933;PMS3003;30667;43.614;1.442;2023-06-10T02:50:31;3.00;3.00;0.50
44933;PMS3003;30667;43.614;1.442;2023-06-10T02:52:57;4.60;3.20;0.40
44933;PMS3003;30667;43.614;1.442;2023-06-10T02:55:23;4.00;3.00;1.00
44933;PMS3003;30667;43.614;1.442;2023-06-10T02:57:51;4.20;2.00;0.00
44933;PMS3003;30667;43.614;1.442;2023-06-10T03:00:19;4.00;3.00;0.00
44933;PMS3003;30667;43.614;1.442;2023-06-10T03:02:45;1.00;1.00;0.00
44933;PMS3003;30667;43.614;1.442;2023-06-10T03:05:10;4.00;3.00;1.00
44933;PMS3003;30667;43.614;1.442;2023-06-10T03:07:38;3.00;3.00;0.60
44933;PMS3003;30667;43.614;1.442;2023-06-10T03:10:04;3.00;2.00;1.00
44933;PMS3003;30667;43.614;1.442;2023-06-10T03:12:30;2.20;2.00;0.20
44933;PMS3003;30667;43.614;1.442;2023-06-10T03:14:56;2.00;2.00;0.00
44933;PMS3003;30667;43.614;1.442;2023-06-10T03:17:21;2.25;2.25;0.50
44933;PMS3003;30667;43.614;1.442;2023-06-10T03:19:46;3.00;2.00;0.00
44933;PMS3003;30667;43.614;1.442;2023-06-10T03:22:12;5.00;4.50;2.00
44933;PMS3003;30667;43.614;1.442;2023-06-10T03:24:39;3.00;3.00;0.80
44933;PMS3003;30667;43.614;1.442;2023-06-10T03:27:06;3.60;3.60;1.00
44933;PMS3003;30667;43.614;1.442;2023-06-10T03:29:32;3.20;3.20;1.00
44933;PMS3003;30667;43.614;1.442;2023-06-10T03:31:57;3.00;2.00;1.00
44933;PMS3003;30667;43.614;1.442;2023-06-10T03:34:23;4.00;4.00;1.00
44933;PMS3003;30667;43.614;1.442;2023-06-10T03:36:48;3.00;3.00;0.50
44933;PMS3003;30667;43.614;1.442;2023-06-10T03:39:14;5.00;4.00;1.00
44933;PMS3003;30667;43.614;1.442;2023-06-10T03:41:40;4.00;3.40;1.00
44933;PMS3003;30667;43.614;1.442;2023-06-10T03:44:05;4.00;3.00;1.00
44933;PMS3003;30667;43.614;1.442;2023-06-10T03:46:31;4.75;3.75;1.00
44933;PMS3003;30667;43.614;1.442;2023-06-10T03:48:56;3.50;3.00;1.00
44933;PMS3003;30667;43.614;1.442;2023-06-10T03:51:25;3.00;3.00;0.80
44933;PMS3003;30667;43.614;1.442;2023-06-10T03:53:53;2.60;2.60;0.40
44933;PMS3003;30667;43.614;1.442;2023-06-10T03:56:18;2.25;2.25;0.75
44933;PMS3003;30667;43.614;1.442;2023-06-10T03:58:44;4.00;4.00;1.25
44933;PMS3003;30667;43.614;1.442;2023-06-10T04:01:09;7.00;4.00;1.00
44933;PMS3003;30667;43.614;1.442;2023-06-10T04:03:35;4.80;3.00;1.00
44933;PMS3003;30667;43.614;1.442;2023-06-10T04:06:01;4.50;3.00;1.00
44933;PMS3003;30667;43.614;1.442;2023-06-10T04:08:27;3.60;3.60;1.00
44933;PMS3003;30667;43.614;1.442;2023-06-10T04:10:53;2.50;2.50;0.00
44933;PMS3003;30667;43.614;1.442;2023-06-10T04:13:18;3.50;2.50;1.00
44933;PMS3003;30667;43.614;1.442;2023-06-10T04:15:44;3.60;3.00;0.60
44933;PMS3003;30667;43.614;1.442;2023-06-10T04:18:10;4.50;3.00;0.00
44933;PMS3003;30667;43.614;1.442;2023-06-10T04:20:35;3.00;3.00;1.00
44933;PMS3003;30667;43.614;1.442;2023-06-10T04:23:01;3.00;3.00;0.00
44933;PMS3003;30667;43.614;1.442;2023-06-10T04:25:26;2.25;2.25;0.00
44933;PMS3003;30667;43.614;1.442;2023-06-10T04:27:52;2.25;2.00;0.00
44933;PMS3003;30667;43.614;1.442;2023-06-10T04:30:17;3.00;2.00;0.00
44933;PMS3003;30667;43.614;1.442;2023-06-10T04:32:43;2.25;2.00;0.50
44933;PMS3003;30667;43.614;1.442;2023-06-10T04:35:11;2.25;2.25;1.00
44933;PMS3003;30667;43.614;1.442;2023-06-10T04:37:37;4.00;2.40;0.00
44933;PMS3003;30667;43.614;1.442;2023-06-10T04:40:03;2.25;2.25;0.00
44933;PMS3003;30667;43.614;1.442;2023-06-10T04:42:30;2.60;2.40;0.00
44933;PMS3003;30667;43.614;1.442;2023-06-10T04:44:55;2.00;2.00;0.00
44933;PMS3003;30667;43.614;1.442;2023-06-10T04:47:21;4.25;3.00;0.75
44933;PMS3003;30667;43.614;1.442;2023-06-10T04:49:46;2.50;2.00;0.25
44933;PMS3003;30667;43.614;1.442;2023-06-10T04:52:12;3.00;3.00;0.00
44933;PMS3003;30667;43.614;1.442;2023-06-10T04:54:39;2.80;2.00;0.00
44933;PMS3003;30667;43.614;1.442;2023-06-10T04:57:04;2.75;2.75;1.00
44933;PMS3003;30667;43.614;1.442;2023-06-10T04:59:32;3.00;3.00;1.00
44933;PMS3003;30667;43.614;1.442;2023-06-10T05:02:02;3.80;3.00;1.00
44933;PMS3003;30667;43.614;1.442;2023-06-10T05:04:28;3.00;3.00;0.20
44933;PMS3003;30667;43.614;1.442;2023-06-10T05:06:54;2.00;2.00;1.00
44933;PMS3003;30667;43.614;1.442;2023-06-10T05:09:20;3.50;3.00;0.00
44933;PMS3003;30667;43.614;1.442;2023-06-10T05:11:46;3.00;3.00;1.00
44933;PMS3003;30667;43.614;1.442;2023-06-10T05:14:11;3.00;3.00;1.00
44933;PMS3003;30667;43.614;1.442;2023-06-10T05:16:37;7.00;4.00;1.00
44933;PMS3003;30667;43.614;1.442;2023-06-10T05:19:02;4.50;3.25;1.00
44933;PMS3003;30667;43.614;1.442;2023-06-10T05:21:29;4.40;3.60;1.20
44933;PMS3003;30667;43.614;1.442;2023-06-10T05:23:54;2.80;2.80;1.00
44933;PMS3003;30667;43.614;1.442;2023-06-10T05:26:20;3.00;3.00;1.00
44933;PMS3003;30667;43.614;1.442;2023-06-10T05:28:45;5.75;4.75;1.00
44933;PMS3003;30667;43.614;1.442;2023-06-10T05:31:10;2.00;2.00;0.00
44933;PMS3003;30667;43.614;1.442;2023-06-10T05:33:36;3.50;3.00;1.00
44933;PMS3003;30667;43.614;1.442;2023-06-10T05:36:01;3.50;3.00;1.00
44933;PMS3003;30667;43.614;1.442;2023-06-10T05:38:27;3.25;3.25;1.00
44933;PMS3003;30667;43.614;1.442;2023-06-10T05:40:52;3.50;3.50;1.00
44933;PMS3003;30667;43.614;1.442;2023-06-10T05:43:18;3.25;3.00;1.00
44933;PMS3003;30667;43.614;1.442;2023-06-10T05:45:43;5.25;3.00;0.25
44933;PMS3003;30667;43.614;1.442;2023-06-10T05:48:09;3.80;3.40;0.60
44933;PMS3003;30667;43.614;1.442;2023-06-10T05:50:34;4.00;3.00;1.00
44933;PMS3003;30667;43.614;1.442;2023-06-10T05:53:03;3.60;3.00;1.00
44933;PMS3003;30667;43.614;1.442;2023-06-10T05:55:31;5.60;4.20;1.00
44933;PMS3003;30667;43.614;1.442;2023-06-10T05:58:00;2.00;2.00;1.00
44933;PMS3003;30667;43.614;1.442;2023-06-10T06:00:26;5.40;3.00;1.00
44933;PMS3003;30667;43.614;1.442;2023-06-10T06:02:52;3.00;3.00;0.00
44933;PMS3003;30667;43.614;1.442;2023-06-10T06:05:18;3.00;3.00;1.00
44933;PMS3003;30667;43.614;1.442;2023-06-10T06:07:43;3.00;3.00;1.00
44933;PMS3003;30667;43.614;1.442;2023-06-10T06:10:09;3.50;3.00;1.00
44933;PMS3003;30667;43.614;1.442;2023-06-10T06:12:34;2.00;2.00;0.00
44933;PMS3003;30667;43.614;1.442;2023-06-10T06:15:00;2.00;2.00;0.00
44933;PMS3003;30667;43.614;1.442;2023-06-10T06:17:25;2.75;2.00;0.00
44933;PMS3003;30667;43.614;1.442;2023-06-10T06:19:50;2.00;2.00;0.00
44933;PMS3003;30667;43.614;1.442;2023-06-10T06:22:16;3.00;2.00;0.00
44933;PMS3003;30667;43.614;1.442;2023-06-10T06:24:46;2.80;2.60;0.20
44933;PMS3003;30667;43.614;1.442;2023-06-10T06:27:11;2.75;2.00;0.50
44933;PMS3003;30667;43.614;1.442;2023-06-10T06:29:37;4.00;4.00;1.00
44933;PMS3003;30667;43.614;1.442;2023-06-10T06:32:02;4.25;3.25;1.00
44933;PMS3003;30667;43.614;1.442;2023-06-10T06:34:28;3.00;3.00;1.00
44933;PMS3003;30667;43.614;1.442;2023-06-10T06:36:54;4.00;3.00;1.00
44933;PMS3003;30667;43.614;1.442;2023-06-10T06:39:19;3.25;3.00;1.00
44933;PMS3003;30667;43.614;1.442;2023-06-10T06:41:44;3.50;3.00;2.00
44933;PMS3003;30667;43.614;1.442;2023-06-10T06:44:10;3.75;3.75;1.00
44933;PMS3003;30667;43.614;1.442;2023-06-10T06:46:35;3.00;3.00;1.00
44933;PMS3003;30667;43.614;1.442;2023-06-10T06:49:00;3.25;3.00;1.00
44933;PMS3003;30667;43.614;1.442;2023-06-10T06:51:26;2.00;2.00;0.25
44933;PMS3003;30667;43.614;1.442;2023-06-10T06:53:51;3.00;3.00;1.00
44933;PMS3003;30667;43.614;1.442;2023-06-10T06:56:19;3.00;3.00;1.00
44933;PMS3003;30667;43.614;1.442;2023-06-10T06:58:46;2.00;2.00;0.00
44933;PMS3003;30667;43.614;1.442;2023-06-10T07:01:11;3.00;3.00;0.00
44933;PMS3003;30667;43.614;1.442;2023-06-10T07:03:37;3.00;3.00;0.25
44933;PMS3003;30667;43.614;1.442;2023-06-10T07:06:02;3.75;3.25;1.00
44933;PMS3003;30667;43.614;1.442;2023-06-10T07:08:31;2.50;2.50;0.25
44933;PMS3003;30667;43.614;1.442;2023-06-10T07:10:59;2.80;2.80;1.00
44933;PMS3003;30667;43.614;1.442;2023-06-10T07:13:24;2.75;2.75;0.00
44933;PMS3003;30667;43.614;1.442;2023-06-10T07:15:50;2.00;2.00;0.50
44933;PMS3003;30667;43.614;1.442;2023-06-10T07:18:15;3.75;3.75;1.75
44933;PMS3003;30667;43.614;1.442;2023-06-10T07:20:43;3.80;3.00;1.00
44933;PMS3003;30667;43.614;1.442;2023-06-10T07:23:09;3.80;3.80;1.60
44933;PMS3003;30667;43.614;1.442;2023-06-10T07:25:35;5.00;4.00;1.25
44933;PMS3003;30667;43.614;1.442;2023-06-10T07:28:00;4.50;3.25;1.00
44933;PMS3003;30667;43.614;1.442;2023-06-10T07:30:26;3.50;3.50;0.75
44933;PMS3003;30667;43.614;1.442;2023-06-10T07:32:51;3.50;3.50;1.25
44933;PMS3003;30667;43.614;1.442;2023-06-10T07:35:16;4.00;4.00;2.00
44933;PMS3003;30667;43.614;1.442;2023-06-10T07:37:42;5.25;4.25;1.50
44933;PMS3003;30667;43.614;1.442;2023-06-10T07:40:08;4.00;3.00;1.00
44933;PMS3003;30667;43.614;1.442;2023-06-10T07:42:34;5.00;4.80;2.00
44933;PMS3003;30667;43.614;1.442;2023-06-10T07:45:01;4.00;4.00;2.00
44933;PMS3003;30667;43.614;1.442;2023-06-10T07:47:27;4.00;3.20;1.00
44933;PMS3003;30667;43.614;1.442;2023-06-10T07:49:52;4.50;4.00;1.25
44933;PMS3003;30667;43.614;1.442;2023-06-10T07:52:17;4.50;4.50;1.50
44933;PMS3003;30667;43.614;1.442;2023-06-10T07:54:43;3.75;3.00;1.25
44933;PMS3003;30667;43.614;1.442;2023-06-10T07:57:08;3.00;3.00;1.50
44933;PMS3003;30667;43.614;1.442;2023-06-10T07:59:34;3.00;3.00;1.00
44933;PMS3003;30667;43.614;1.442;2023-06-10T08:01:59;4.00;3.75;1.25
44933;PMS3003;30667;43.614;1.442;2023-06-10T08:04:24;4.00;4.00;1.00
44933;PMS3003;30667;43.614;1.442;2023-06-10T08:06:50;5.50;4.00;1.00
44933;PMS3003;30667;43.614;1.442;2023-06-10T08:09:16;3.00;3.00;1.00
44933;PMS3003;30667;43.614;1.442;2023-06-10T08:11:41;4.40;4.40;2.00
44933;PMS3003;30667;43.614;1.442;2023-06-10T08:14:07;4.50;4.25;2.00
44933;PMS3003;30667;43.614;1.442;2023-06-10T08:16:32;2.75;2.00;1.00
44933;PMS3003;30667;43.614;1.442;2023-06-10T08:18:57;4.00;3.50;1.25
44933;PMS3003;30667;43.614;1.442;2023-06-10T08:21:23;3.00;3.00;1.00
44933;PMS3003;30667;43.614;1.442;2023-06-10T08:23:52;4.00;4.00;1.50
44933;PMS3003;30667;43.614;1.442;2023-06-10T08:26:18;4.40;4.40;1.00
44933;PMS3003;30667;43.614;1.442;2023-06-10T08:28:43;3.25;3.25;1.25
44933;PMS3003;30667;43.614;1.442;2023-06-10T08:31:09;3.75;3.75;1.00
44933;PMS3003;30667;43.614;1.442;2023-06-10T08:33:34;4.00;3.00;1.00
44933;PMS3003;30667;43.614;1.442;2023-06-10T08:36:00;4.00;3.00;1.00
44933;PMS3003;30667;43.614;1.442;2023-06-10T08:38:25;2.50;2.50;1.00
44933;PMS3003;30667;43.614;1.442;2023-06-10T08:40:50;4.00;3.00;1.00
44933;PMS3003;30667;43.614;1.442;2023-06-10T08:44:03;3.60;3.00;0.60
44933;PMS3003;30667;43.614;1.442;2023-06-10T08:46:13;4.80;3.20;1.00
44933;PMS3003;30667;43.614;1.442;2023-06-10T08:48:41;5.00;4.20;1.00
44933;PMS3003;30667;43.614;1.442;2023-06-10T08:51:09;4.00;3.00;1.00
44933;PMS3003;30667;43.614;1.442;2023-06-10T08:53:36;3.80;2.80;0.60
44933;PMS3003;30667;43.614;1.442;2023-06-10T08:56:06;3.00;3.00;1.00
44933;PMS3003;30667;43.614;1.442;2023-06-10T08:58:32;3.00;3.00;1.00
44933;PMS3003;30667;43.614;1.442;2023-06-10T09:01:06;3.80;3.40;1.20
44933;PMS3003;30667;43.614;1.442;2023-06-10T09:03:32;3.80;3.00;1.00
44933;PMS3003;30667;43.614;1.442;2023-06-10T09:06:00;3.00;3.00;1.00
44933;PMS3003;30667;43.614;1.442;2023-06-10T09:08:27;4.00;3.20;1.00
44933;PMS3003;30667;43.614;1.442;2023-06-10T09:10:53;4.25;3.25;1.00
44933;PMS3003;30667;43.614;1.442;2023-06-10T09:13:19;4.00;3.00;1.00
44933;PMS3003;30667;43.614;1.442;2023-06-10T09:15:44;4.25;3.50;1.00
44933;PMS3003;30667;43.614;1.442;2023-06-10T09:18:10;4.00;3.00;1.00
44933;PMS3003;30667;43.614;1.442;2023-06-10T09:20:38;4.00;3.60;1.00
44933;PMS3003;30667;43.614;1.442;2023-06-10T09:23:04;4.00;3.00;1.00
44933;PMS3003;30667;43.614;1.442;2023-06-10T09:25:34;5.00;5.00;1.00
44933;PMS3003;30667;43.614;1.442;2023-06-10T09:28:01;3.60;3.60;1.00
44933;PMS3003;30667;43.614;1.442;2023-06-10T09:30:32;2.20;2.20;1.00
44933;PMS3003;30667;43.614;1.442;2023-06-10T09:33:02;5.60;4.00;1.00
44933;PMS3003;30667;43.614;1.442;2023-06-10T09:35:34;2.00;2.00;1.00
44933;PMS3003;30667;43.614;1.442;2023-06-10T09:38:00;3.00;3.00;1.50
44933;PMS3003;30667;43.614;1.442;2023-06-10T09:40:27;3.00;2.60;1.00
44933;PMS3003;30667;43.614;1.442;2023-06-10T09:42:54;3.00;3.00;0.40
44933;PMS3003;30667;43.614;1.442;2023-06-10T09:45:27;3.60;3.60;2.00
44933;PMS3003;30667;43.614;1.442;2023-06-10T09:47:55;3.40;3.40;1.00
44933;PMS3003;30667;43.614;1.442;2023-06-10T09:50:21;6.00;5.00;2.00
44933;PMS3003;30667;43.614;1.442;2023-06-10T09:52:46;4.25;4.00;2.00
44933;PMS3003;30667;43.614;1.442;2023-06-10T09:55:15;4.20;4.00;1.80
44933;PMS3003;30667;43.614;1.442;2023-06-10T09:57:41;4.00;3.60;1.00
44933;PMS3003;30667;43.614;1.442;2023-06-10T10:00:09;3.60;3.20;1.40
44933;PMS3003;30667;43.614;1.442;2023-06-10T10:02:49;5.00;4.80;1.60
44933;PMS3003;30667;43.614;1.442;2023-06-10T10:05:16;3.60;3.60;0.40
44933;PMS3003;30667;43.614;1.442;2023-06-10T10:07:43;4.60;4.60;2.00
44933;PMS3003;30667;43.614;1.442;2023-06-10T10:10:09;4.80;4.00;1.80
44933;PMS3003;30667;43.614;1.442;2023-06-10T10:12:36;4.60;3.80;2.00
44933;PMS3003;30667;43.614;1.442;2023-06-10T10:15:03;5.00;3.80;1.00
44933;PMS3003;30667;43.614;1.442;2023-06-10T10:17:33;4.00;4.00;1.00
44933;PMS3003;30667;43.614;1.442;2023-06-10T10:20:03;3.80;3.00;1.00
44933;PMS3003;30667;43.614;1.442;2023-06-10T10:22:34;3.40;3.40;1.00
44933;PMS3003;30667;43.614;1.442;2023-06-10T10:25:12;3.60;3.00;1.00
44933;PMS3003;30667;43.614;1.442;2023-06-10T10:27:44;3.40;2.80;1.00
44933;PMS3003;30667;43.614;1.442;2023-06-10T10:30:17;3.00;3.00;1.00
44933;PMS3003;30667;43.614;1.442;2023-06-10T10:32:58;5.00;5.00;2.00
44933;PMS3003;30667;43.614;1.442;2023-06-10T10:35:29;4.00;4.00;2.00
44933;PMS3003;30667;43.614;1.442;2023-06-10T10:37:55;3.80;3.80;2.00
44933;PMS3003;30667;43.614;1.442;2023-06-10T10:40:21;4.75;4.75;2.00
44933;PMS3003;30667;43.614;1.442;2023-06-10T10:42:49;6.00;5.00;2.00
44933;PMS3003;30667;43.614;1.442;2023-06-10T10:45:16;5.20;4.60;2.00
44933;PMS3003;30667;43.614;1.442;2023-06-10T10:47:42;5.00;4.00;1.25
44933;PMS3003;30667;43.614;1.442;2023-06-10T10:50:13;4.00;3.20;1.60
44933;PMS3003;30667;43.614;1.442;2023-06-10T10:52:59;3.40;3.00;1.00
44933;PMS3003;30667;43.614;1.442;2023-06-10T10:55:26;3.20;3.20;1.00
44933;PMS3003;30667;43.614;1.442;2023-06-10T10:57:53;31.75;30.75;21.00
44933;PMS3003;30667;43.614;1.442;2023-06-10T11:00:37;76.60;67.00;46.60
44933;PMS3003;30667;43.614;1.442;2023-06-10T11:03:13;114.80;103.20;74.00
44933;PMS3003;30667;43.614;1.442;2023-06-10T11:05:41;79.40;70.40;51.80
44933;PMS3003;30667;43.614;1.442;2023-06-10T11:08:09;80.60;74.20;52.80
44933;PMS3003;30667;43.614;1.442;2023-06-10T11:10:36;53.75;44.00;30.00
44933;PMS3003;30667;43.614;1.442;2023-06-10T11:13:10;61.80;49.20;34.40
44933;PMS3003;30667;43.614;1.442;2023-06-10T11:15:39;64.40;51.80;35.40
44933;PMS3003;30667;43.614;1.442;2023-06-10T11:18:10;36.25;32.75;23.00
44933;PMS3003;30667;43.614;1.442;2023-06-10T11:28:37;24.40;24.40;17.00
44933;PMS3003;30667;43.614;1.442;2023-06-10T11:31:21;26.40;24.20;16.80
44933;PMS3003;30667;43.614;1.442;2023-06-10T11:33:54;22.80;21.00;13.80
44933;PMS3003;30667;43.614;1.442;2023-06-10T11:36:24;16.60;12.00;7.60
44933;PMS3003;30667;43.614;1.442;2023-06-10T11:38:53;10.00;10.00;6.00
44933;PMS3003;30667;43.614;1.442;2023-06-10T11:41:26;7.40;6.80;4.00
44933;PMS3003;30667;43.614;1.442;2023-06-10T11:43:56;8.00;8.00;5.00
44933;PMS3003;30667;43.614;1.442;2023-06-10T11:46:26;9.20;9.20;5.60
44933;PMS3003;30667;43.614;1.442;2023-06-10T11:48:56;9.00;8.20;4.20
44933;PMS3003;30667;43.614;1.442;2023-06-10T11:51:26;8.80;8.00;5.00
44933;PMS3003;30667;43.614;1.442;2023-06-10T11:53:53;9.00;8.00;4.20
44933;PMS3003;30667;43.614;1.442;2023-06-10T11:56:20;9.60;9.00;5.60
44933;PMS3003;30667;43.614;1.442;2023-06-10T11:58:54;8.60;8.00;5.00
44933;PMS3003;30667;43.614;1.442;2023-06-10T12:01:25;9.40;8.40;5.00
44933;PMS3003;30667;43.614;1.442;2023-06-10T12:04:02;7.40;7.20;4.60
44933;PMS3003;30667;43.614;1.442;2023-06-10T12:06:37;7.20;6.00;3.00
44933;PMS3003;30667;43.614;1.442;2023-06-10T12:09:12;3.80;3.80;2.00
44933;PMS3003;30667;43.614;1.442;2023-06-10T12:17:42;2.80;2.80;1.00
44933;PMS3003;30667;43.614;1.442;2023-06-10T12:20:08;3.00;3.00;1.00
44933;PMS3003;30667;43.614;1.442;2023-06-10T12:22:49;2.80;2.80;1.00
44933;PMS3003;30667;43.614;1.442;2023-06-10T12:25:14;2.75;2.75;1.00
44933;PMS3003;30667;43.614;1.442;2023-06-10T12:27:40;3.00;3.00;1.00
44933;PMS3003;30667;43.614;1.442;2023-06-10T12:30:18;3.80;3.20;1.00
44933;PMS3003;30667;43.614;1.442;2023-06-10T12:32:47;3.40;3.40;1.20
44933;PMS3003;30667;43.614;1.442;2023-06-10T12:35:20;3.40;3.00;1.00
44933;PMS3003;30667;43.614;1.442;2023-06-10T12:40:28;3.80;3.60;1.00
44933;PMS3003;30667;43.614;1.442;2023-06-10T12:42:56;3.80;3.80;1.00
44933;PMS3003;30667;43.614;1.442;2023-06-10T12:45:29;2.00;2.00;1.00
44933;PMS3003;30667;43.614;1.442;2023-06-10T12:50:56;3.00;3.00;1.00
44933;PMS3003;30667;43.614;1.442;2023-06-10T12:53:23;2.00;2.00;1.00
44933;PMS3003;30667;43.614;1.442;2023-06-10T12:55:49;2.00;2.00;0.80
44933;PMS3003;30667;43.614;1.442;2023-06-10T12:58:15;2.40;2.40;0.00
44933;PMS3003;30667;43.614;1.442;2023-06-10T13:00:41;3.00;3.00;1.00
44933;PMS3003;30667;43.614;1.442;2023-06-10T13:03:07;3.00;2.40;0.20
44933;PMS3003;30667;43.614;1.442;2023-06-10T13:05:37;2.00;2.00;0.00
44933;PMS3003;30667;43.614;1.442;2023-06-10T13:08:04;2.80;2.80;1.00
44933;PMS3003;30667;43.614;1.442;2023-06-10T13:10:35;2.60;2.60;0.60
44933;PMS3003;30667;43.614;1.442;2023-06-10T13:13:01;2.40;2.40;0.20
44933;PMS3003;30667;43.614;1.442;2023-06-10T13:15:30;1.80;1.40;0.00
44933;PMS3003;30667;43.614;1.442;2023-06-10T13:17:55;2.00;2.00;0.75
44933;PMS3003;30667;43.614;1.442;2023-06-10T13:20:20;3.00;3.00;1.00
44933;PMS3003;30667;43.614;1.442;2023-06-10T13:22:46;2.60;2.60;1.00
44933;PMS3003;30667;43.614;1.442;2023-06-10T13:25:12;3.00;3.00;1.00
44933;PMS3003;30667;43.614;1.442;2023-06-10T13:27:38;3.00;3.00;1.00
44933;PMS3003;30667;43.614;1.442;2023-06-10T13:30:04;2.20;2.20;0.00
44933;PMS3003;30667;43.614;1.442;2023-06-10T13:32:34;2.00;2.00;0.40
44933;PMS3003;30667;43.614;1.442;2023-06-10T13:35:00;2.80;2.80;1.00
44933;PMS3003;30667;43.614;1.442;2023-06-10T13:37:26;4.50;3.00;1.00
44933;PMS3003;30667;43.614;1.442;2023-06-10T13:39:51;3.00;3.00;0.00
44933;PMS3003;30667;43.614;1.442;2023-06-10T13:42:17;2.75;2.50;0.00
44933;PMS3003;30667;43.614;1.442;2023-06-10T13:44:43;2.00;2.00;1.00
44933;PMS3003;30667;43.614;1.442;2023-06-10T13:47:08;2.00;2.00;0.00
44933;PMS3003;30667;43.614;1.442;2023-06-10T13:49:34;3.00;3.00;1.00
44933;PMS3003;30667;43.614;1.442;2023-06-10T13:52:00;4.00;3.20;0.20
44933;PMS3003;30667;43.614;1.442;2023-06-10T13:54:26;3.50;3.50;1.00
44933;PMS3003;30667;43.614;1.442;2023-06-10T13:56:52;2.60;2.60;1.00
44933;PMS3003;30667;43.614;1.442;2023-06-10T13:59:18;2.00;2.00;0.00
44933;PMS3003;30667;43.614;1.442;2023-06-10T14:01:44;2.60;2.60;0.60
44933;PMS3003;30667;43.614;1.442;2023-06-10T14:04:10;4.00;3.00;1.00
44933;PMS3003;30667;43.614;1.442;2023-06-10T14:06:35;1.75;1.75;1.00
44933;PMS3003;30667;43.614;1.442;2023-06-10T14:09:00;3.00;2.25;1.00
44933;PMS3003;30667;43.614;1.442;2023-06-10T14:11:26;2.00;2.00;1.00
44933;PMS3003;30667;43.614;1.442;2023-06-10T14:13:51;3.00;3.00;1.00
44933;PMS3003;30667;43.614;1.442;2023-06-10T14:16:17;3.00;2.50;1.00
44933;PMS3003;30667;43.614;1.442;2023-06-10T14:18:42;3.00;3.00;0.00
44933;PMS3003;30667;43.614;1.442;2023-06-10T14:21:08;2.00;2.00;0.00
44933;PMS3003;30667;43.614;1.442;2023-06-10T14:23:33;1.50;1.50;0.00
44933;PMS3003;30667;43.614;1.442;2023-06-10T14:25:58;2.50;2.50;0.00
44933;PMS3003;30667;43.614;1.442;2023-06-10T14:28:24;2.75;2.75;0.00
44933;PMS3003;30667;43.614;1.442;2023-06-10T14:30:51;3.00;2.00;0.80
44933;PMS3003;30667;43.614;1.442;2023-06-10T14:33:17;1.80;1.60;0.00
44933;PMS3003;30667;43.614;1.442;2023-06-10T14:35:42;2.00;1.75;0.00
44933;PMS3003;30667;43.614;1.442;2023-06-10T14:38:08;1.75;1.75;0.00
44933;PMS3003;30667;43.614;1.442;2023-06-10T14:40:33;2.00;2.00;0.25
44933;PMS3003;30667;43.614;1.442;2023-06-10T14:42:59;3.00;2.25;1.00
44933;PMS3003;30667;43.614;1.442;2023-06-10T14:45:26;2.80;2.00;0.00